createdAt,value
2019-02-08T00:02:09.206Z,98385.72
2019-02-08T00:04:39.687Z,98374.00
2019-02-08T00:07:10.533Z,98374.86
2019-02-08T00:09:40.958Z,98380.02
2019-02-08T00:12:12.187Z,98370.45
2019-02-08T00:14:42.478Z,98373.53
2019-02-08T00:17:12.715Z,98376.19
2019-02-08T00:19:42.956Z,98381.23
2019-02-08T00:22:13.697Z,98375.69
2019-02-08T00:24:44.006Z,98379.91
2019-02-08T00:27:14.145Z,98382.30
2019-02-08T00:29:44.491Z,98383.90
2019-02-08T00:32:14.849Z,98389.72
2019-02-08T00:34:45.480Z,98387.96
2019-02-08T00:37:15.979Z,98383.16
2019-02-08T00:39:46.299Z,98385.84
2019-02-08T00:42:16.547Z,98385.00
2019-02-08T00:44:48.416Z,98381.25
2019-02-08T00:47:18.596Z,98385.97
2019-02-08T00:49:48.794Z,98387.30
2019-02-08T00:52:19.085Z,98388.16
2019-02-08T00:54:49.634Z,98387.14
2019-02-08T00:57:20.151Z,98390.81
2019-02-08T00:59:50.584Z,98390.22
2019-02-08T01:02:21.075Z,98391.48
2019-02-08T01:04:51.224Z,98391.56
2019-02-08T01:07:21.514Z,98398.80
2019-02-08T01:09:51.693Z,98398.58
2019-02-08T01:12:21.945Z,98395.45
2019-02-08T01:14:52.179Z,98388.76
2019-02-08T01:17:22.439Z,98385.06
2019-02-08T01:19:52.649Z,98386.84
2019-02-08T01:22:22.882Z,98395.52
2019-02-08T01:24:53.421Z,98397.22
2019-02-08T01:27:23.603Z,98396.09
2019-02-08T01:29:53.984Z,98391.52
2019-02-08T01:32:24.305Z,98394.77
2019-02-08T01:34:54.691Z,98409.13
2019-02-08T01:37:24.822Z,98410.91
2019-02-08T01:39:55.005Z,98410.57
2019-02-08T01:42:25.258Z,98421.69
2019-02-08T01:44:55.480Z,98413.59
2019-02-08T01:47:25.720Z,98419.89
2019-02-08T01:49:55.881Z,98415.20
2019-02-08T01:52:26.077Z,98416.33
2019-02-08T01:54:56.230Z,98419.28
2019-02-08T01:57:26.546Z,98415.97
2019-02-08T01:59:57.252Z,98421.67
2019-02-08T02:02:27.710Z,98425.73
2019-02-08T02:04:57.811Z,98423.02
2019-02-08T02:07:28.073Z,98420.95
2019-02-08T02:09:58.221Z,98423.31
2019-02-08T02:12:28.483Z,98420.42
2019-02-08T02:14:58.708Z,98424.48
2019-02-08T02:17:28.991Z,98416.83
2019-02-08T02:19:59.303Z,98414.97
2019-02-08T02:22:30.105Z,98410.63
2019-02-08T02:25:00.340Z,98418.14
2019-02-08T02:27:30.875Z,98418.14
2019-02-08T02:30:01.052Z,98413.72
2019-02-08T02:32:31.231Z,98421.33
2019-02-08T02:35:01.336Z,98416.14
2019-02-08T02:37:31.490Z,98412.31
2019-02-08T02:40:01.768Z,98402.92
2019-02-08T02:42:31.991Z,98403.35
2019-02-08T02:45:02.209Z,98404.41
2019-02-08T02:47:33.349Z,98409.64
2019-02-08T02:50:04.020Z,98403.74
2019-02-08T02:52:34.361Z,98406.17
2019-02-08T02:55:05.091Z,98402.19
2019-02-08T02:57:35.578Z,98399.76
2019-02-08T03:00:12.759Z,98394.80
2019-02-08T03:02:43.181Z,98399.60
2019-02-08T03:05:13.643Z,98399.09
2019-02-08T03:07:44.175Z,98404.98
2019-02-08T03:10:18.246Z,98409.25
2019-02-08T03:12:48.597Z,98407.92
2019-02-08T03:15:20.966Z,98403.81
2019-02-08T03:17:51.825Z,98406.52
2019-02-08T03:20:23.427Z,98401.50
2019-02-08T03:22:54.273Z,98405.85
2019-02-08T03:25:25.770Z,98401.50
2019-02-08T03:27:56.211Z,98392.70
2019-02-08T03:30:33.995Z,98396.19
2019-02-08T03:33:04.304Z,98396.86
2019-02-08T03:35:34.500Z,98391.54
2019-02-08T03:38:05.189Z,98392.70
2019-02-08T03:40:35.786Z,98386.44
2019-02-08T03:43:08.181Z,98382.23
2019-02-08T03:45:40.761Z,98385.24
2019-02-08T03:48:12.081Z,98393.29
2019-02-08T03:50:42.416Z,98392.44
2019-02-08T03:53:13.360Z,98386.13
2019-02-08T03:55:43.782Z,98385.53
2019-02-08T03:58:13.978Z,98390.62
2019-02-08T04:00:58.412Z,98396.83
2019-02-08T04:03:28.660Z,98396.08
2019-02-08T04:05:58.827Z,98395.75
2019-02-08T04:08:29.172Z,98387.90
2019-02-08T04:10:59.485Z,98388.47
2019-02-08T04:13:32.696Z,98394.67
2019-02-08T04:16:04.927Z,98391.03
2019-02-08T04:18:35.065Z,98385.80
2019-02-08T04:21:05.474Z,98387.50
2019-02-08T04:23:35.835Z,98389.17
2019-02-08T04:26:06.212Z,98390.27
2019-02-08T04:28:36.460Z,98399.30
2019-02-08T04:31:06.963Z,98396.16
2019-02-08T04:33:37.909Z,98398.06
2019-02-08T04:36:08.425Z,98396.19
2019-02-08T04:38:38.590Z,98399.75
2019-02-08T04:41:08.843Z,98394.73
2019-02-08T04:43:38.948Z,98399.30
2019-02-08T04:46:09.098Z,98403.73
2019-02-08T04:48:40.572Z,98397.52
2019-02-08T04:51:10.763Z,98388.92
2019-02-08T04:53:41.331Z,98394.38
2019-02-08T04:56:11.562Z,98397.57
2019-02-08T04:58:41.969Z,98397.34
2019-02-08T05:01:12.155Z,98399.48
2019-02-08T05:03:42.342Z,98395.35
2019-02-08T05:06:12.775Z,98396.26
2019-02-08T05:08:42.976Z,98398.53
2019-02-08T05:11:13.167Z,98399.37
2019-02-08T05:13:43.298Z,98391.13
2019-02-08T05:16:13.602Z,98396.13
2019-02-08T05:18:43.749Z,98389.06
2019-02-08T05:21:13.956Z,98386.98
2019-02-08T05:23:44.107Z,98393.51
2019-02-08T05:26:14.395Z,98402.42
2019-02-08T05:28:45.082Z,98399.09
2019-02-08T05:31:15.385Z,98390.41
2019-02-08T05:33:45.819Z,98387.28
2019-02-08T05:36:16.145Z,98390.83
2019-02-08T05:38:46.802Z,98390.23
2019-02-08T05:41:17.086Z,98386.41
2019-02-08T05:43:47.627Z,98388.89
2019-02-08T05:46:17.871Z,98387.71
2019-02-08T05:48:50.895Z,98388.09
2019-02-08T05:51:21.037Z,98394.33
2019-02-08T05:53:51.265Z,98383.41
2019-02-08T05:56:21.462Z,98386.30
2019-02-08T05:58:51.701Z,98392.61
2019-02-08T06:01:21.908Z,98378.44
2019-02-08T06:03:52.159Z,98385.76
2019-02-08T06:06:22.951Z,98381.30
2019-02-08T06:08:53.177Z,98388.16
2019-02-08T06:11:23.635Z,98394.70
2019-02-08T06:13:53.912Z,98399.24
2019-02-08T06:16:24.268Z,98399.78
2019-02-08T06:18:54.930Z,98403.77
2019-02-08T06:21:25.342Z,98402.94
2019-02-08T06:23:55.547Z,98405.59
2019-02-08T06:26:25.715Z,98401.61
2019-02-08T06:28:55.955Z,98406.92
2019-02-08T06:31:26.250Z,98405.73
2019-02-08T06:33:56.481Z,98415.39
2019-02-08T06:36:26.622Z,98414.80
2019-02-08T06:38:56.763Z,98408.72
2019-02-08T06:41:26.915Z,98414.84
2019-02-08T06:43:57.150Z,98410.53
2019-02-08T06:46:27.549Z,98408.48
2019-02-08T06:48:57.746Z,98408.16
2019-02-08T06:51:28.275Z,98410.53
2019-02-08T06:53:58.711Z,98401.25
2019-02-08T06:56:46.546Z,98408.54
2019-02-08T06:59:27.267Z,98408.94
2019-02-08T07:02:34.657Z,98403.41
2019-02-08T07:05:28.038Z,98405.14
2019-02-08T07:08:09.311Z,98406.61
2019-02-08T07:10:56.055Z,98405.96
2019-02-08T07:13:53.478Z,98410.20
2019-02-08T07:16:54.738Z,98408.73
2019-02-08T07:19:32.386Z,98404.11
2019-02-08T07:22:12.604Z,98414.08
2019-02-08T07:24:49.220Z,98419.75
2019-02-08T07:27:47.696Z,98414.78
2019-02-08T07:30:48.486Z,98414.78
2019-02-08T07:33:30.658Z,98414.41
2019-02-08T07:36:19.912Z,98418.84
2019-02-08T07:39:12.878Z,98421.64
2019-02-08T07:42:08.631Z,98426.80
2019-02-08T07:45:10.762Z,98425.05
2019-02-08T07:48:03.056Z,98430.64
2019-02-08T07:50:38.557Z,98430.07
2019-02-08T07:53:26.903Z,98432.74
2019-02-08T07:56:15.131Z,98428.17
2019-02-08T07:59:05.291Z,98435.62
2019-02-08T08:01:54.947Z,98434.45
2019-02-08T08:04:44.143Z,98437.40
2019-02-08T08:07:39.623Z,98434.39
2019-02-08T08:10:40.511Z,98424.12
2019-02-08T08:13:42.017Z,98428.75
2019-02-08T08:16:30.083Z,98428.84
2019-02-08T08:19:28.559Z,98425.43
2019-02-08T08:22:20.347Z,98422.09
2019-02-08T08:25:13.039Z,98423.51
2019-02-08T08:28:08.463Z,98420.41
2019-02-08T08:30:56.429Z,98425.30
2019-02-08T08:33:38.096Z,98421.06
2019-02-08T08:36:42.703Z,98423.33
2019-02-08T08:40:01.803Z,98418.33
2019-02-08T08:43:06.177Z,98423.03
2019-02-08T08:46:20.028Z,98431.63
2019-02-08T08:49:33.602Z,98422.69
2019-02-08T08:52:20.874Z,98428.72
2019-02-08T08:55:22.064Z,98425.79
2019-02-08T08:58:19.703Z,98425.16
2019-02-08T09:01:26.222Z,98424.18
2019-02-08T09:04:23.651Z,98421.10
2019-02-08T09:07:35.771Z,98411.81
2019-02-08T09:10:52.175Z,98411.81
2019-02-08T09:13:58.297Z,98402.73
2019-02-08T09:16:55.732Z,98408.27
2019-02-08T09:20:22.200Z,98410.21
2019-02-08T09:23:23.243Z,98400.66
2019-02-08T09:26:23.203Z,98390.30
2019-02-08T09:29:43.413Z,98383.59
2019-02-08T09:33:12.933Z,98374.77
2019-02-08T09:36:27.665Z,98375.16
2019-02-08T09:39:39.241Z,98371.83
2019-02-08T09:42:36.636Z,98361.91
2019-02-08T09:45:43.877Z,98374.53
2019-02-08T09:49:04.727Z,98372.02
2019-02-08T09:52:05.231Z,98382.05
2019-02-08T09:55:18.283Z,98380.47
2019-02-08T09:58:25.796Z,98377.78
2019-02-08T10:01:27.216Z,98382.16
2019-02-08T10:04:50.394Z,98381.84
2019-02-08T10:07:39.553Z,98373.05
2019-02-08T10:10:59.798Z,98379.30
2019-02-08T10:14:06.560Z,98376.47
2019-02-08T10:17:13.923Z,98369.73
2019-02-08T10:20:09.769Z,98372.23
2019-02-08T10:23:25.921Z,98374.89
2019-02-08T10:26:38.737Z,98375.34
2019-02-08T10:29:47.363Z,98379.61
2019-02-08T10:33:12.734Z,98377.70
2019-02-08T10:36:14.542Z,98365.09
2019-02-08T10:39:30.963Z,98367.59
2019-02-08T10:42:48.069Z,98367.70
2019-02-08T10:46:11.862Z,98368.65
2019-02-08T10:49:22.138Z,98361.18
2019-02-08T10:52:39.181Z,98358.19
2019-02-08T10:55:46.557Z,98351.00
2019-02-08T10:58:53.751Z,98350.81
2019-02-08T11:02:04.158Z,98345.59
2019-02-08T11:05:20.642Z,98333.23
2019-02-08T11:08:45.954Z,98328.20
2019-02-08T11:12:09.118Z,98324.13
2019-02-08T11:15:16.152Z,98324.09
2019-02-08T11:18:38.727Z,98307.89
2019-02-08T11:21:10.507Z,98301.30
2019-02-08T11:23:41.028Z,98285.61
2019-02-08T11:26:12.104Z,98285.32
2019-02-08T11:28:42.582Z,98290.73
2019-02-08T11:31:12.789Z,98281.06
2019-02-08T11:33:43.208Z,98282.31
2019-02-08T11:36:13.532Z,98274.44
2019-02-08T11:38:44.903Z,98271.02
2019-02-08T11:41:15.407Z,98274.36
2019-02-08T11:43:45.724Z,98273.70
2019-02-08T11:46:15.940Z,98273.81
2019-02-08T11:48:46.239Z,98260.78
2019-02-08T11:51:16.561Z,98260.23
2019-02-08T11:53:47.018Z,98259.27
2019-02-08T11:56:17.850Z,98256.71
2019-02-08T11:58:48.027Z,98251.14
2019-02-08T12:01:18.314Z,98259.04
2019-02-08T12:03:49.844Z,98239.41
2019-02-08T12:06:20.416Z,98241.53
2019-02-08T12:08:50.659Z,98242.53
2019-02-08T12:11:21.069Z,98231.97
2019-02-08T12:13:51.257Z,98229.89
2019-02-08T12:16:21.708Z,98219.23
2019-02-08T12:18:52.404Z,98217.80
2019-02-08T12:21:22.731Z,98208.21
2019-02-08T12:23:53.909Z,98211.19
2019-02-08T12:26:25.504Z,98204.72
2019-02-08T12:28:55.924Z,98200.35
2019-02-08T12:31:26.164Z,98204.65
2019-02-08T12:33:56.514Z,98198.57
2019-02-08T12:36:26.887Z,98190.45
2019-02-08T12:38:57.479Z,98198.30
2019-02-08T12:41:27.887Z,98186.16
2019-02-08T12:43:58.254Z,98184.27
2019-02-08T12:46:29.319Z,98173.70
2019-02-08T12:48:59.687Z,98170.61
2019-02-08T12:51:29.875Z,98151.32
2019-02-08T12:54:00.070Z,98153.48
2019-02-08T13:00:04.718Z,98146.18
2019-02-08T13:02:35.325Z,98128.75
2019-02-08T13:05:06.399Z,98132.94
2019-02-08T13:07:36.593Z,98124.84
2019-02-08T13:10:10.334Z,98126.37
2019-02-08T13:12:40.708Z,98120.68
2019-02-08T13:15:11.618Z,98116.52
2019-02-08T13:17:41.903Z,98112.77
2019-02-08T13:20:14.399Z,98116.91
2019-02-08T13:22:44.575Z,98104.76
2019-02-08T13:25:15.651Z,98103.23
2019-02-08T13:27:45.912Z,98093.70
2019-02-08T13:30:24.585Z,98089.06
2019-02-08T13:32:55.014Z,98087.23
2019-02-08T13:35:25.178Z,98089.86
2019-02-08T13:37:55.475Z,98080.86
2019-02-08T13:40:26.089Z,98080.98
2019-02-08T13:42:56.531Z,98073.47
2019-02-08T13:45:27.110Z,98077.78
2019-02-08T13:47:57.410Z,98077.80
2019-02-08T13:50:28.144Z,98066.96
2019-02-08T13:52:58.734Z,98069.12
2019-02-08T13:55:29.502Z,98067.67
2019-02-08T13:57:59.973Z,98063.41
2019-02-08T14:00:32.909Z,98057.26
2019-02-08T14:03:06.871Z,98052.72
2019-02-08T14:05:37.247Z,98053.48
2019-02-08T14:08:07.433Z,98052.96
2019-02-08T14:10:47.379Z,98047.63
2019-02-08T14:13:17.669Z,98044.20
2019-02-08T14:15:48.375Z,98037.48
2019-02-08T14:18:18.758Z,98032.27
2019-02-08T14:20:49.013Z,98034.84
2019-02-08T14:23:19.556Z,98033.80
2019-02-08T14:25:49.875Z,98021.48
2019-02-08T14:28:21.688Z,98018.89
2019-02-08T14:30:52.090Z,98006.16
2019-02-08T14:33:22.715Z,98019.09
2019-02-08T14:35:53.099Z,98006.44
2019-02-08T14:38:23.475Z,98004.55
2019-02-08T14:40:53.719Z,97992.16
2019-02-08T14:43:24.190Z,97988.91
2019-02-08T14:45:55.073Z,97989.35
2019-02-08T14:48:25.462Z,97986.28
2019-02-08T14:50:55.584Z,97985.16
2019-02-08T14:53:27.741Z,97982.97
2019-02-08T14:55:58.018Z,97972.87
2019-02-08T14:58:28.340Z,97976.03
2019-02-08T15:00:58.926Z,97975.88
2019-02-08T15:03:29.523Z,97971.88
2019-02-08T15:05:59.777Z,97958.86
2019-02-08T15:08:30.343Z,97958.11
2019-02-08T15:11:00.881Z,97966.39
2019-02-08T15:13:31.112Z,97963.88
2019-02-08T15:16:02.321Z,97956.17
2019-02-08T15:18:32.665Z,97949.70
2019-02-08T15:21:02.985Z,97946.84
2019-02-08T15:23:33.780Z,97946.97
2019-02-08T15:26:04.034Z,97943.41
2019-02-08T15:28:34.379Z,97934.73
2019-02-08T15:31:05.047Z,97937.22
2019-02-08T15:33:35.536Z,97927.64
2019-02-08T15:36:06.070Z,97926.05
2019-02-08T15:38:36.832Z,97927.33
2019-02-08T15:41:07.079Z,97923.70
2019-02-08T15:43:38.116Z,97922.28
2019-02-08T15:46:09.379Z,97924.36
2019-02-08T15:48:40.096Z,97926.22
2019-02-08T15:51:10.604Z,97914.36
2019-02-08T15:53:41.028Z,97914.74
2019-02-08T15:56:29.575Z,97912.70
2019-02-08T15:58:59.981Z,97921.02
2019-02-08T16:01:30.849Z,97909.98
2019-02-08T16:04:01.529Z,97912.32
2019-02-08T16:06:31.845Z,97914.71
2019-02-08T16:09:02.359Z,97913.23
2019-02-08T16:11:33.028Z,97911.48
2019-02-08T16:14:03.461Z,97906.66
2019-02-08T16:16:34.004Z,97906.59
2019-02-08T16:19:04.634Z,97905.11
2019-02-08T16:21:35.021Z,97902.45
2019-02-08T16:24:05.908Z,97901.52
2019-02-08T16:26:36.250Z,97888.91
2019-02-08T16:29:06.931Z,97887.98
2019-02-08T16:31:37.565Z,97885.81
2019-02-08T16:34:08.370Z,97879.75
2019-02-08T16:36:38.731Z,97888.69
2019-02-08T16:39:11.088Z,97892.33
2019-02-08T16:41:42.161Z,97885.62
2019-02-08T16:44:12.951Z,97878.23
2019-02-08T16:46:43.458Z,97876.97
2019-02-08T16:49:14.092Z,97877.84
2019-02-08T16:51:44.610Z,97872.80
2019-02-08T16:54:15.116Z,97874.30
2019-02-08T16:56:45.756Z,97872.59
2019-02-08T16:59:16.178Z,97868.39
2019-02-08T17:01:46.905Z,97866.83
2019-02-08T17:04:17.525Z,97865.66
2019-02-08T17:06:47.870Z,97869.90
2019-02-08T17:09:18.216Z,97873.10
2019-02-08T17:12:07.444Z,97877.85
2019-02-08T17:14:38.274Z,97877.58
2019-02-08T17:17:08.846Z,97875.55
2019-02-08T17:19:39.736Z,97872.81
2019-02-08T17:22:09.977Z,97870.66
2019-02-08T17:24:40.713Z,97873.39
2019-02-08T17:27:11.313Z,97875.30
2019-02-08T17:29:41.976Z,97872.88
2019-02-08T17:32:12.406Z,97863.55
2019-02-08T17:34:42.688Z,97866.27
2019-02-08T17:37:13.023Z,97871.30
2019-02-08T17:39:43.294Z,97860.02
2019-02-08T17:42:14.881Z,97877.07
2019-02-08T17:44:45.293Z,97871.24
2019-02-08T17:47:15.483Z,97863.20
2019-02-08T17:49:45.909Z,97868.27
2019-02-08T17:52:16.157Z,97860.53
2019-02-08T17:54:46.750Z,97862.66
2019-02-08T17:57:17.210Z,97854.59
2019-02-08T17:59:47.584Z,97848.19
2019-02-08T18:02:17.885Z,97849.19
2019-02-08T18:04:48.332Z,97848.41
2019-02-08T18:07:18.746Z,97839.84
2019-02-08T18:09:49.280Z,97843.07
2019-02-08T18:12:20.722Z,97847.92
2019-02-08T18:14:51.106Z,97850.63
2019-02-08T18:17:21.605Z,97845.30
2019-02-08T18:19:53.046Z,97837.02
2019-02-08T18:22:23.480Z,97840.55
2019-02-08T18:24:54.015Z,97843.23
2019-02-08T18:27:24.558Z,97842.69
2019-02-08T18:29:54.882Z,97836.27
2019-02-08T18:32:25.256Z,97837.63
2019-02-08T18:34:55.735Z,97840.59
2019-02-08T18:37:26.198Z,97843.80
2019-02-08T18:39:56.499Z,97838.45
2019-02-08T18:42:26.937Z,97837.63
2019-02-08T18:44:57.209Z,97839.77
2019-02-08T18:47:27.761Z,97842.42
2019-02-08T18:49:58.330Z,97841.62
2019-02-08T18:52:28.837Z,97838.66
2019-02-08T18:54:59.436Z,97842.12
2019-02-08T18:57:30.930Z,97840.75
2019-02-08T19:00:01.653Z,97841.28
2019-02-08T19:02:32.121Z,97828.68
2019-02-08T19:05:02.766Z,97832.27
2019-02-08T19:07:33.254Z,97822.55
2019-02-08T19:10:03.785Z,97825.49
2019-02-08T19:12:34.289Z,97823.39
2019-02-08T19:15:05.981Z,97820.41
2019-02-08T19:17:36.516Z,97823.88
2019-02-08T19:20:08.155Z,97815.83
2019-02-08T19:22:38.540Z,97809.69
2019-02-08T19:25:14.686Z,97812.28
2019-02-08T19:27:45.078Z,97818.45
2019-02-08T19:30:19.530Z,97806.41
2019-02-08T19:32:50.101Z,97807.70
2019-02-08T19:35:20.467Z,97808.50
2019-02-08T19:37:50.944Z,97798.34
2019-02-08T19:40:23.764Z,97798.87
2019-02-08T19:42:54.224Z,97795.91
2019-02-08T19:45:25.102Z,97792.95
2019-02-08T19:47:55.522Z,97781.97
2019-02-08T19:50:29.126Z,97775.81
2019-02-08T19:52:59.746Z,97775.25
2019-02-08T19:55:30.432Z,97771.98
2019-02-08T19:58:01.054Z,97758.88
2019-02-08T20:00:33.346Z,97753.54
2019-02-08T20:03:04.154Z,97747.64
2019-02-08T20:05:36.275Z,97747.61
2019-02-08T20:08:07.636Z,97736.34
2019-02-08T20:10:40.637Z,97738.70
2019-02-08T20:13:12.081Z,97738.91
2019-02-08T20:15:42.546Z,97734.91
2019-02-08T20:18:14.397Z,97738.66
2019-02-08T20:20:44.776Z,97735.98
2019-02-08T20:23:15.487Z,97734.58
2019-02-08T20:25:46.486Z,97738.44
2019-02-08T20:28:19.114Z,97727.23
2019-02-08T20:30:49.870Z,97723.52
2019-02-08T20:33:20.417Z,97720.08
2019-02-08T20:35:50.805Z,97722.48
2019-02-08T20:38:21.763Z,97721.70
2019-02-08T20:40:52.966Z,97715.84
2019-02-08T20:43:24.821Z,97714.96
2019-02-08T20:45:55.468Z,97710.03
2019-02-08T20:48:26.046Z,97708.95
2019-02-08T20:50:56.709Z,97709.24
2019-02-08T20:53:26.988Z,97713.24
2019-02-08T20:55:57.821Z,97714.05
2019-02-08T20:58:28.834Z,97703.33
2019-02-08T21:01:00.423Z,97698.78
2019-02-08T21:03:31.214Z,97696.91
2019-02-08T21:06:01.981Z,97696.91
2019-02-08T21:08:33.013Z,97692.07
2019-02-08T21:11:03.941Z,97689.56
2019-02-08T21:13:34.580Z,97687.94
2019-02-08T21:16:06.051Z,97683.39
2019-02-08T21:18:36.732Z,97678.08
2019-02-08T21:21:07.666Z,97674.90
2019-02-08T21:23:38.032Z,97672.72
2019-02-08T21:26:08.857Z,97672.98
2019-02-08T21:28:39.375Z,97668.94
2019-02-08T21:31:10.109Z,97669.22
2019-02-08T21:33:40.697Z,97661.45
2019-02-08T21:36:11.109Z,97660.13
2019-02-08T21:38:42.036Z,97659.87
2019-02-08T21:41:12.407Z,97648.91
2019-02-08T21:43:43.102Z,97648.05
2019-02-08T21:46:13.699Z,97649.39
2019-02-08T21:48:44.036Z,97643.73
2019-02-08T21:51:14.614Z,97635.45
2019-02-08T21:53:45.345Z,97637.34
2019-02-08T21:56:16.106Z,97629.86
2019-02-08T21:58:46.443Z,97627.44
2019-02-08T22:09:42.091Z,97629.34
2019-02-08T22:12:12.460Z,97627.37
2019-02-08T22:14:43.342Z,97611.62
2019-02-08T22:17:13.750Z,97616.91
2019-02-08T22:19:44.306Z,97616.07
2019-02-08T22:22:14.769Z,97620.26
2019-02-08T22:24:45.275Z,97609.25
2019-02-08T22:27:16.994Z,97607.11
2019-02-08T22:29:47.387Z,97599.05
2019-02-08T22:32:17.804Z,97606.45
2019-02-08T22:34:48.121Z,97601.84
2019-02-08T22:37:18.797Z,97588.23
2019-02-08T22:39:49.247Z,97599.92
2019-02-08T22:42:19.466Z,97595.62
2019-02-08T22:44:49.716Z,97597.22
2019-02-08T22:47:20.398Z,97598.52
2019-02-08T22:49:50.969Z,97595.75
2019-02-08T22:52:21.330Z,97590.90
2019-02-08T22:54:51.519Z,97595.16
2019-02-08T22:57:21.842Z,97591.16
2019-02-08T22:59:52.384Z,97587.43
2019-02-08T23:02:22.992Z,97600.47
2019-02-08T23:04:53.189Z,97593.74
2019-02-08T23:07:23.323Z,97599.50
2019-02-08T23:09:53.626Z,97607.40
2019-02-08T23:12:24.900Z,97614.26
2019-02-08T23:14:56.545Z,97606.42
2019-02-08T23:17:26.877Z,97611.05
2019-02-08T23:19:57.341Z,97618.25
2019-02-08T23:22:27.516Z,97623.78
2019-02-08T23:24:57.759Z,97629.06
2019-02-08T23:27:27.934Z,97618.59
2019-02-08T23:29:58.124Z,97607.78
2019-02-08T23:32:28.391Z,97602.76
2019-02-08T23:34:58.604Z,97609.40
2019-02-08T23:37:30.230Z,97620.90
2019-02-08T23:40:00.721Z,97597.63
2019-02-08T23:42:31.062Z,97601.93
2019-02-08T23:45:01.262Z,97584.48
2019-02-08T23:47:31.446Z,97601.38
2019-02-08T23:50:01.701Z,97590.44
2019-02-08T23:52:32.616Z,97589.92
2019-02-08T23:55:03.095Z,97582.52
2019-02-08T23:57:33.397Z,97570.00
